sensor_id;sensor_type;location;lat;lon;timestamp;temperature;humidity
52211;DHT22;38179;52.756;6.906;2023-08-20T00:00:37;17.00;99.90
52211;DHT22;38179;52.756;6.906;2023-08-20T00:03:09;17.00;99.90
52211;DHT22;38179;52.756;6.906;2023-08-20T00:05:37;16.90;99.90
52211;DHT22;38179;52.756;6.906;2023-08-20T00:08:03;16.80;99.90
52211;DHT22;38179;52.756;6.906;2023-08-20T00:10:30;16.90;99.90
52211;DHT22;38179;52.756;6.906;2023-08-20T00:12:57;17.00;99.90
52211;DHT22;38179;52.756;6.906;2023-08-20T00:15:23;17.10;99.90
52211;DHT22;38179;52.756;6.906;2023-08-20T00:17:53;17.00;99.90
52211;DHT22;38179;52.756;6.906;2023-08-20T00:20:19;17.10;99.90
52211;DHT22;38179;52.756;6.906;2023-08-20T00:22:46;17.00;99.90
52211;DHT22;38179;52.756;6.906;2023-08-20T00:25:16;17.00;99.90
52211;DHT22;38179;52.756;6.906;2023-08-20T00:27:43;17.00;99.90
52211;DHT22;38179;52.756;6.906;2023-08-20T00:30:09;17.00;99.90
52211;DHT22;38179;52.756;6.906;2023-08-20T00:32:37;16.90;99.90
52211;DHT22;38179;52.756;6.906;2023-08-20T00:35:03;16.80;99.90
52211;DHT22;38179;52.756;6.906;2023-08-20T00:37:30;16.90;99.90
52211;DHT22;38179;52.756;6.906;2023-08-20T00:39:57;16.90;99.90
52211;DHT22;38179;52.756;6.906;2023-08-20T00:42:25;16.90;99.90
52211;DHT22;38179;52.756;6.906;2023-08-20T00:44:52;16.90;99.90
52211;DHT22;38179;52.756;6.906;2023-08-20T00:47:18;16.90;99.90
52211;DHT22;38179;52.756;6.906;2023-08-20T00:49:46;16.90;99.90
52211;DHT22;38179;52.756;6.906;2023-08-20T00:52:13;16.90;99.90
52211;DHT22;38179;52.756;6.906;2023-08-20T00:54:40;16.90;99.90
52211;DHT22;38179;52.756;6.906;2023-08-20T00:57:07;16.90;99.90
52211;DHT22;38179;52.756;6.906;2023-08-20T00:59:34;16.90;99.90
52211;DHT22;38179;52.756;6.906;2023-08-20T01:02:00;16.90;99.90
52211;DHT22;38179;52.756;6.906;2023-08-20T01:04:29;16.80;99.90
52211;DHT22;38179;52.756;6.906;2023-08-20T01:07:32;16.80;99.90
52211;DHT22;38179;52.756;6.906;2023-08-20T01:10:14;16.70;99.90
52211;DHT22;38179;52.756;6.906;2023-08-20T01:12:44;16.60;99.90
52211;DHT22;38179;52.756;6.906;2023-08-20T01:15:11;16.50;99.90
52211;DHT22;38179;52.756;6.906;2023-08-20T01:17:43;16.50;99.90
52211;DHT22;38179;52.756;6.906;2023-08-20T01:20:12;16.40;99.90
52211;DHT22;38179;52.756;6.906;2023-08-20T01:28:21;16.60;99.90
52211;DHT22;38179;52.756;6.906;2023-08-20T01:30:48;16.60;99.90
52211;DHT22;38179;52.756;6.906;2023-08-20T01:33:14;16.50;99.90
52211;DHT22;38179;52.756;6.906;2023-08-20T01:35:41;16.50;99.90
52211;DHT22;38179;52.756;6.906;2023-08-20T01:38:07;16.50;99.90
52211;DHT22;38179;52.756;6.906;2023-08-20T01:40:34;16.60;99.90
52211;DHT22;38179;52.756;6.906;2023-08-20T01:43:00;16.60;99.90
52211;DHT22;38179;52.756;6.906;2023-08-20T01:45:27;16.40;99.90
52211;DHT22;38179;52.756;6.906;2023-08-20T01:47:53;16.40;99.90
52211;DHT22;38179;52.756;6.906;2023-08-20T01:50:19;16.40;99.90
52211;DHT22;38179;52.756;6.906;2023-08-20T01:52:45;16.30;99.90
52211;DHT22;38179;52.756;6.906;2023-08-20T01:55:11;16.30;99.90
52211;DHT22;38179;52.756;6.906;2023-08-20T01:57:38;16.40;99.90
52211;DHT22;38179;52.756;6.906;2023-08-20T02:00:04;16.30;99.90
52211;DHT22;38179;52.756;6.906;2023-08-20T02:02:33;16.20;99.90
52211;DHT22;38179;52.756;6.906;2023-08-20T02:05:00;16.30;99.90
52211;DHT22;38179;52.756;6.906;2023-08-20T02:07:29;16.30;99.90
52211;DHT22;38179;52.756;6.906;2023-08-20T02:09:55;16.30;99.90
52211;DHT22;38179;52.756;6.906;2023-08-20T02:12:21;16.30;99.90
52211;DHT22;38179;52.756;6.906;2023-08-20T02:14:53;16.30;99.90
52211;DHT22;38179;52.756;6.906;2023-08-20T02:17:19;16.20;99.90
52211;DHT22;38179;52.756;6.906;2023-08-20T02:19:45;16.10;99.90
52211;DHT22;38179;52.756;6.906;2023-08-20T02:22:11;16.00;99.90
52211;DHT22;38179;52.756;6.906;2023-08-20T02:24:37;16.10;99.90
52211;DHT22;38179;52.756;6.906;2023-08-20T02:27:03;16.10;99.90
52211;DHT22;38179;52.756;6.906;2023-08-20T02:29:29;15.90;99.90
52211;DHT22;38179;52.756;6.906;2023-08-20T02:31:55;16.00;99.90
52211;DHT22;38179;52.756;6.906;2023-08-20T02:34:21;16.00;99.90
52211;DHT22;38179;52.756;6.906;2023-08-20T02:36:47;16.00;99.90
52211;DHT22;38179;52.756;6.906;2023-08-20T02:39:14;16.00;99.90
52211;DHT22;38179;52.756;6.906;2023-08-20T02:41:40;16.00;99.90
52211;DHT22;38179;52.756;6.906;2023-08-20T02:44:07;16.10;99.90
52211;DHT22;38179;52.756;6.906;2023-08-20T02:46:33;16.10;99.90
52211;DHT22;38179;52.756;6.906;2023-08-20T02:48:59;16.10;99.90
52211;DHT22;38179;52.756;6.906;2023-08-20T02:51:24;16.10;99.90
52211;DHT22;38179;52.756;6.906;2023-08-20T02:53:50;16.10;99.90
52211;DHT22;38179;52.756;6.906;2023-08-20T02:56:16;16.10;99.90
52211;DHT22;38179;52.756;6.906;2023-08-20T02:58:42;16.00;99.90
52211;DHT22;38179;52.756;6.906;2023-08-20T03:01:23;16.00;99.90
52211;DHT22;38179;52.756;6.906;2023-08-20T03:03:50;15.90;99.90
52211;DHT22;38179;52.756;6.906;2023-08-20T03:06:16;15.80;99.90
52211;DHT22;38179;52.756;6.906;2023-08-20T03:08:41;15.90;99.90
52211;DHT22;38179;52.756;6.906;2023-08-20T03:11:07;15.90;99.90
52211;DHT22;38179;52.756;6.906;2023-08-20T03:13:33;15.90;99.90
52211;DHT22;38179;52.756;6.906;2023-08-20T03:15:59;16.00;99.90
52211;DHT22;38179;52.756;6.906;2023-08-20T03:18:26;16.00;99.90
52211;DHT22;38179;52.756;6.906;2023-08-20T03:20:54;15.90;99.90
52211;DHT22;38179;52.756;6.906;2023-08-20T03:23:21;16.00;99.90
52211;DHT22;38179;52.756;6.906;2023-08-20T03:25:47;15.90;99.90
52211;DHT22;38179;52.756;6.906;2023-08-20T03:28:13;15.90;99.90
52211;DHT22;38179;52.756;6.906;2023-08-20T03:30:39;15.80;99.90
52211;DHT22;38179;52.756;6.906;2023-08-20T03:33:05;15.80;99.90
52211;DHT22;38179;52.756;6.906;2023-08-20T03:35:31;15.60;99.90
52211;DHT22;38179;52.756;6.906;2023-08-20T03:37:57;15.60;99.90
52211;DHT22;38179;52.756;6.906;2023-08-20T03:40:23;15.60;99.90
52211;DHT22;38179;52.756;6.906;2023-08-20T03:42:49;15.60;99.90
52211;DHT22;38179;52.756;6.906;2023-08-20T03:45:15;15.70;99.90
52211;DHT22;38179;52.756;6.906;2023-08-20T03:47:41;15.80;99.90
52211;DHT22;38179;52.756;6.906;2023-08-20T03:50:10;15.70;99.90
52211;DHT22;38179;52.756;6.906;2023-08-20T03:52:36;15.70;99.90
52211;DHT22;38179;52.756;6.906;2023-08-20T03:55:02;15.70;99.90
52211;DHT22;38179;52.756;6.906;2023-08-20T03:57:29;15.70;99.90
52211;DHT22;38179;52.756;6.906;2023-08-20T03:59:54;15.70;99.90
52211;DHT22;38179;52.756;6.906;2023-08-20T04:02:20;15.70;99.90
52211;DHT22;38179;52.756;6.906;2023-08-20T04:04:46;15.70;99.90
52211;DHT22;38179;52.756;6.906;2023-08-20T04:07:13;15.70;99.90
52211;DHT22;38179;52.756;6.906;2023-08-20T04:09:39;15.60;99.90
52211;DHT22;38179;52.756;6.906;2023-08-20T04:12:06;15.50;99.90
52211;DHT22;38179;52.756;6.906;2023-08-20T04:14:32;15.40;99.90
52211;DHT22;38179;52.756;6.906;2023-08-20T04:16:59;15.30;99.90
52211;DHT22;38179;52.756;6.906;2023-08-20T04:19:25;15.30;99.90
52211;DHT22;38179;52.756;6.906;2023-08-20T04:21:51;15.30;99.90
52211;DHT22;38179;52.756;6.906;2023-08-20T04:24:17;15.20;99.90
52211;DHT22;38179;52.756;6.906;2023-08-20T04:26:43;15.20;99.90
52211;DHT22;38179;52.756;6.906;2023-08-20T04:29:09;15.30;99.90
52211;DHT22;38179;52.756;6.906;2023-08-20T04:34:19;15.30;99.90
52211;DHT22;38179;52.756;6.906;2023-08-20T04:36:49;15.30;99.90
52211;DHT22;38179;52.756;6.906;2023-08-20T04:39:15;15.20;99.90
52211;DHT22;38179;52.756;6.906;2023-08-20T04:41:40;15.20;99.90
52211;DHT22;38179;52.756;6.906;2023-08-20T04:44:06;15.20;99.90
52211;DHT22;38179;52.756;6.906;2023-08-20T04:46:32;15.30;99.90
52211;DHT22;38179;52.756;6.906;2023-08-20T04:48:58;15.30;99.90
52211;DHT22;38179;52.756;6.906;2023-08-20T04:51:24;15.40;99.90
52211;DHT22;38179;52.756;6.906;2023-08-20T04:53:50;15.40;99.90
52211;DHT22;38179;52.756;6.906;2023-08-20T04:56:16;15.50;99.90
52211;DHT22;38179;52.756;6.906;2023-08-20T04:58:42;15.50;99.90
52211;DHT22;38179;52.756;6.906;2023-08-20T05:01:08;15.60;99.90
52211;DHT22;38179;52.756;6.906;2023-08-20T05:03:34;15.60;99.90
52211;DHT22;38179;52.756;6.906;2023-08-20T05:06:00;15.70;99.90
52211;DHT22;38179;52.756;6.906;2023-08-20T05:08:27;15.70;99.90
52211;DHT22;38179;52.756;6.906;2023-08-20T05:10:53;15.80;99.90
52211;DHT22;38179;52.756;6.906;2023-08-20T05:13:20;15.70;99.90
52211;DHT22;38179;52.756;6.906;2023-08-20T05:15:46;15.80;99.90
52211;DHT22;38179;52.756;6.906;2023-08-20T05:18:12;15.90;99.90
52211;DHT22;38179;52.756;6.906;2023-08-20T05:20:40;15.80;99.90
52211;DHT22;38179;52.756;6.906;2023-08-20T05:23:06;15.90;99.90
52211;DHT22;38179;52.756;6.906;2023-08-20T05:25:31;15.90;99.90
52211;DHT22;38179;52.756;6.906;2023-08-20T05:27:57;15.90;99.90
52211;DHT22;38179;52.756;6.906;2023-08-20T05:30:26;15.90;99.90
52211;DHT22;38179;52.756;6.906;2023-08-20T05:32:51;15.90;99.90
52211;DHT22;38179;52.756;6.906;2023-08-20T05:35:17;15.90;99.90
52211;DHT22;38179;52.756;6.906;2023-08-20T05:37:43;16.00;99.90
52211;DHT22;38179;52.756;6.906;2023-08-20T05:40:09;16.00;99.90
52211;DHT22;38179;52.756;6.906;2023-08-20T05:42:35;16.00;99.90
52211;DHT22;38179;52.756;6.906;2023-08-20T05:45:01;16.10;99.90
52211;DHT22;38179;52.756;6.906;2023-08-20T05:47:28;16.10;99.90
52211;DHT22;38179;52.756;6.906;2023-08-20T05:49:54;16.20;99.90
52211;DHT22;38179;52.756;6.906;2023-08-20T05:52:20;16.20;99.90
52211;DHT22;38179;52.756;6.906;2023-08-20T05:54:45;16.30;99.90
52211;DHT22;38179;52.756;6.906;2023-08-20T05:57:12;16.40;99.90
52211;DHT22;38179;52.756;6.906;2023-08-20T05:59:38;16.40;99.90
52211;DHT22;38179;52.756;6.906;2023-08-20T06:02:04;16.50;99.90
52211;DHT22;38179;52.756;6.906;2023-08-20T06:04:30;16.50;99.90
52211;DHT22;38179;52.756;6.906;2023-08-20T06:06:56;16.50;99.90
52211;DHT22;38179;52.756;6.906;2023-08-20T06:09:22;16.60;99.90
52211;DHT22;38179;52.756;6.906;2023-08-20T06:11:48;16.60;99.90
52211;DHT22;38179;52.756;6.906;2023-08-20T06:14:15;16.70;99.90
52211;DHT22;38179;52.756;6.906;2023-08-20T06:16:40;16.70;99.90
52211;DHT22;38179;52.756;6.906;2023-08-20T06:19:06;16.80;99.90
52211;DHT22;38179;52.756;6.906;2023-08-20T06:21:32;16.80;99.90
52211;DHT22;38179;52.756;6.906;2023-08-20T06:24:00;16.90;99.90
52211;DHT22;38179;52.756;6.906;2023-08-20T06:26:26;16.90;99.90
52211;DHT22;38179;52.756;6.906;2023-08-20T06:28:52;17.00;99.90
52211;DHT22;38179;52.756;6.906;2023-08-20T06:31:18;17.10;99.90
52211;DHT22;38179;52.756;6.906;2023-08-20T06:33:44;17.10;99.90
52211;DHT22;38179;52.756;6.906;2023-08-20T06:36:10;17.20;99.90
52211;DHT22;38179;52.756;6.906;2023-08-20T06:38:36;17.20;99.90
52211;DHT22;38179;52.756;6.906;2023-08-20T06:41:02;17.30;99.90
52211;DHT22;38179;52.756;6.906;2023-08-20T06:43:28;17.30;99.90
52211;DHT22;38179;52.756;6.906;2023-08-20T06:45:54;17.40;99.90
52211;DHT22;38179;52.756;6.906;2023-08-20T06:48:20;17.50;99.90
52211;DHT22;38179;52.756;6.906;2023-08-20T06:50:47;17.60;99.90
52211;DHT22;38179;52.756;6.906;2023-08-20T06:53:13;17.60;99.90
52211;DHT22;38179;52.756;6.906;2023-08-20T06:58:21;17.80;99.90
52211;DHT22;38179;52.756;6.906;2023-08-20T07:00:54;17.80;99.90
52211;DHT22;38179;52.756;6.906;2023-08-20T07:03:21;17.90;99.90
52211;DHT22;38179;52.756;6.906;2023-08-20T07:05:47;18.00;99.90
52211;DHT22;38179;52.756;6.906;2023-08-20T07:08:13;18.00;99.90
52211;DHT22;38179;52.756;6.906;2023-08-20T07:10:39;18.00;99.90
52211;DHT22;38179;52.756;6.906;2023-08-20T07:13:04;18.10;99.90
52211;DHT22;38179;52.756;6.906;2023-08-20T07:15:30;18.10;99.90
52211;DHT22;38179;52.756;6.906;2023-08-20T07:17:56;18.10;99.90
52211;DHT22;38179;52.756;6.906;2023-08-20T07:20:22;18.10;99.90
52211;DHT22;38179;52.756;6.906;2023-08-20T07:22:48;18.20;99.90
52211;DHT22;38179;52.756;6.906;2023-08-20T07:25:14;18.30;99.90
52211;DHT22;38179;52.756;6.906;2023-08-20T07:27:40;18.20;99.90
52211;DHT22;38179;52.756;6.906;2023-08-20T07:30:09;18.30;99.90
52211;DHT22;38179;52.756;6.906;2023-08-20T07:32:35;18.40;99.90
52211;DHT22;38179;52.756;6.906;2023-08-20T07:35:01;18.40;99.90
52211;DHT22;38179;52.756;6.906;2023-08-20T07:37:28;18.40;99.90
52211;DHT22;38179;52.756;6.906;2023-08-20T07:39:53;18.40;99.90
52211;DHT22;38179;52.756;6.906;2023-08-20T07:42:19;18.50;99.90
52211;DHT22;38179;52.756;6.906;2023-08-20T07:44:45;18.60;99.90
52211;DHT22;38179;52.756;6.906;2023-08-20T07:47:11;18.60;99.90
52211;DHT22;38179;52.756;6.906;2023-08-20T07:49:38;18.60;99.90
52211;DHT22;38179;52.756;6.906;2023-08-20T07:52:04;18.70;99.90
52211;DHT22;38179;52.756;6.906;2023-08-20T07:54:30;18.80;99.90
52211;DHT22;38179;52.756;6.906;2023-08-20T07:56:57;18.80;99.90
52211;DHT22;38179;52.756;6.906;2023-08-20T07:59:23;18.80;99.90
52211;DHT22;38179;52.756;6.906;2023-08-20T08:01:49;18.80;99.90
52211;DHT22;38179;52.756;6.906;2023-08-20T08:04:15;18.80;99.90
52211;DHT22;38179;52.756;6.906;2023-08-20T08:06:41;18.80;99.90
52211;DHT22;38179;52.756;6.906;2023-08-20T08:09:28;18.90;99.90
52211;DHT22;38179;52.756;6.906;2023-08-20T08:11:54;19.00;99.90
52211;DHT22;38179;52.756;6.906;2023-08-20T08:14:20;19.00;99.90
52211;DHT22;38179;52.756;6.906;2023-08-20T08:16:46;19.10;99.90
52211;DHT22;38179;52.756;6.906;2023-08-20T08:19:12;19.20;99.90
52211;DHT22;38179;52.756;6.906;2023-08-20T08:21:39;19.30;99.90
52211;DHT22;38179;52.756;6.906;2023-08-20T08:24:05;19.40;99.90
52211;DHT22;38179;52.756;6.906;2023-08-20T08:26:33;19.50;99.90
52211;DHT22;38179;52.756;6.906;2023-08-20T08:29:00;19.60;99.90
52211;DHT22;38179;52.756;6.906;2023-08-20T08:31:26;19.70;99.90
52211;DHT22;38179;52.756;6.906;2023-08-20T08:33:51;19.70;99.90
52211;DHT22;38179;52.756;6.906;2023-08-20T08:36:17;19.80;99.90
52211;DHT22;38179;52.756;6.906;2023-08-20T08:38:44;19.90;99.90
52211;DHT22;38179;52.756;6.906;2023-08-20T08:41:13;19.90;99.90
52211;DHT22;38179;52.756;6.906;2023-08-20T08:43:40;20.00;99.90
52211;DHT22;38179;52.756;6.906;2023-08-20T08:46:08;20.10;99.90
52211;DHT22;38179;52.756;6.906;2023-08-20T08:48:37;20.10;99.90
52211;DHT22;38179;52.756;6.906;2023-08-20T08:51:05;20.10;99.90
52211;DHT22;38179;52.756;6.906;2023-08-20T08:53:32;20.20;99.90
52211;DHT22;38179;52.756;6.906;2023-08-20T08:55:59;20.30;99.90
52211;DHT22;38179;52.756;6.906;2023-08-20T08:58:26;20.40;99.90
52211;DHT22;38179;52.756;6.906;2023-08-20T09:00:52;20.40;99.90
52211;DHT22;38179;52.756;6.906;2023-08-20T09:03:18;20.50;99.90
52211;DHT22;38179;52.756;6.906;2023-08-20T09:05:48;20.60;99.90
52211;DHT22;38179;52.756;6.906;2023-08-20T09:08:28;20.60;99.90
52211;DHT22;38179;52.756;6.906;2023-08-20T09:10:56;20.70;99.90
52211;DHT22;38179;52.756;6.906;2023-08-20T09:13:35;20.70;99.90
52211;DHT22;38179;52.756;6.906;2023-08-20T09:16:04;20.70;99.90
52211;DHT22;38179;52.756;6.906;2023-08-20T09:18:41;20.80;99.90
52211;DHT22;38179;52.756;6.906;2023-08-20T09:21:08;20.90;99.90
52211;DHT22;38179;52.756;6.906;2023-08-20T09:23:34;21.00;99.90
52211;DHT22;38179;52.756;6.906;2023-08-20T09:26:05;21.00;99.90
52211;DHT22;38179;52.756;6.906;2023-08-20T09:28:45;21.00;99.90
52211;DHT22;38179;52.756;6.906;2023-08-20T09:31:12;21.10;99.90
52211;DHT22;38179;52.756;6.906;2023-08-20T09:33:58;21.20;99.90
52211;DHT22;38179;52.756;6.906;2023-08-20T09:36:32;21.30;99.90
52211;DHT22;38179;52.756;6.906;2023-08-20T09:38:58;21.30;99.90
52211;DHT22;38179;52.756;6.906;2023-08-20T09:41:25;21.30;99.90
52211;DHT22;38179;52.756;6.906;2023-08-20T09:43:57;21.40;99.90
52211;DHT22;38179;52.756;6.906;2023-08-20T09:46:27;21.40;99.90
52211;DHT22;38179;52.756;6.906;2023-08-20T09:48:57;21.30;99.90
52211;DHT22;38179;52.756;6.906;2023-08-20T09:51:28;21.40;99.90
52211;DHT22;38179;52.756;6.906;2023-08-20T09:54:16;21.50;99.90
52211;DHT22;38179;52.756;6.906;2023-08-20T09:56:43;21.40;99.90
52211;DHT22;38179;52.756;6.906;2023-08-20T09:59:12;21.40;99.90
52211;DHT22;38179;52.756;6.906;2023-08-20T10:01:39;21.30;99.90
52211;DHT22;38179;52.756;6.906;2023-08-20T10:04:05;21.40;99.90
52211;DHT22;38179;52.756;6.906;2023-08-20T10:06:33;21.40;99.90
52211;DHT22;38179;52.756;6.906;2023-08-20T10:08:59;21.30;99.90
52211;DHT22;38179;52.756;6.906;2023-08-20T10:11:26;21.30;99.90
52211;DHT22;38179;52.756;6.906;2023-08-20T10:13:53;21.40;99.90
52211;DHT22;38179;52.756;6.906;2023-08-20T10:16:21;21.40;99.90
52211;DHT22;38179;52.756;6.906;2023-08-20T10:18:48;21.40;99.90
52211;DHT22;38179;52.756;6.906;2023-08-20T10:21:14;21.50;99.90
52211;DHT22;38179;52.756;6.906;2023-08-20T10:23:40;21.70;99.90
52211;DHT22;38179;52.756;6.906;2023-08-20T10:26:10;21.60;99.90
52211;DHT22;38179;52.756;6.906;2023-08-20T10:28:37;21.70;99.90
52211;DHT22;38179;52.756;6.906;2023-08-20T10:31:12;21.80;99.90
52211;DHT22;38179;52.756;6.906;2023-08-20T10:33:49;21.80;99.90
52211;DHT22;38179;52.756;6.906;2023-08-20T10:36:20;22.00;99.90
52211;DHT22;38179;52.756;6.906;2023-08-20T10:38:54;22.00;99.90
52211;DHT22;38179;52.756;6.906;2023-08-20T10:41:28;22.00;99.90
52211;DHT22;38179;52.756;6.906;2023-08-20T10:43:58;21.90;99.90
52211;DHT22;38179;52.756;6.906;2023-08-20T10:46:26;21.90;99.90
52211;DHT22;38179;52.756;6.906;2023-08-20T10:48:56;22.00;99.90
52211;DHT22;38179;52.756;6.906;2023-08-20T10:51:33;22.00;99.90
52211;DHT22;38179;52.756;6.906;2023-08-20T10:54:03;22.00;99.90
52211;DHT22;38179;52.756;6.906;2023-08-20T10:59:20;22.20;99.90
52211;DHT22;38179;52.756;6.906;2023-08-20T11:01:48;22.30;99.90
52211;DHT22;38179;52.756;6.906;2023-08-20T11:04:19;22.30;99.90
52211;DHT22;38179;52.756;6.906;2023-08-20T11:06:47;22.30;99.90
52211;DHT22;38179;52.756;6.906;2023-08-20T11:09:15;22.40;99.90
52211;DHT22;38179;52.756;6.906;2023-08-20T11:11:42;22.40;99.90
52211;DHT22;38179;52.756;6.906;2023-08-20T11:14:14;22.40;99.90
52211;DHT22;38179;52.756;6.906;2023-08-20T11:16:42;22.40;99.90
52211;DHT22;38179;52.756;6.906;2023-08-20T11:19:12;22.50;99.90
52211;DHT22;38179;52.756;6.906;2023-08-20T11:21:40;22.40;99.90
52211;DHT22;38179;52.756;6.906;2023-08-20T11:24:09;22.40;99.90
52211;DHT22;38179;52.756;6.906;2023-08-20T11:26:38;22.40;99.90
52211;DHT22;38179;52.756;6.906;2023-08-20T11:29:10;22.50;99.90
52211;DHT22;38179;52.756;6.906;2023-08-20T11:31:38;22.50;99.90
52211;DHT22;38179;52.756;6.906;2023-08-20T11:34:05;22.60;99.90
52211;DHT22;38179;52.756;6.906;2023-08-20T11:36:32;22.70;99.90
52211;DHT22;38179;52.756;6.906;2023-08-20T11:38:58;22.70;99.90
52211;DHT22;38179;52.756;6.906;2023-08-20T11:41:25;22.60;99.90
52211;DHT22;38179;52.756;6.906;2023-08-20T11:43:52;22.60;99.90
52211;DHT22;38179;52.756;6.906;2023-08-20T11:49:07;22.70;99.90
52211;DHT22;38179;52.756;6.906;2023-08-20T11:51:44;22.80;99.90
52211;DHT22;38179;52.756;6.906;2023-08-20T11:54:20;22.80;99.90
52211;DHT22;38179;52.756;6.906;2023-08-20T11:56:48;22.80;99.90
52211;DHT22;38179;52.756;6.906;2023-08-20T11:59:17;22.80;99.90
52211;DHT22;38179;52.756;6.906;2023-08-20T12:01:49;22.90;99.90
52211;DHT22;38179;52.756;6.906;2023-08-20T12:04:15;22.80;99.90
52211;DHT22;38179;52.756;6.906;2023-08-20T12:06:40;22.90;99.90
52211;DHT22;38179;52.756;6.906;2023-08-20T12:09:21;22.90;99.90
52211;DHT22;38179;52.756;6.906;2023-08-20T12:11:54;22.90;99.90
52211;DHT22;38179;52.756;6.906;2023-08-20T12:14:22;23.00;99.90
52211;DHT22;38179;52.756;6.906;2023-08-20T12:16:48;22.90;99.90
52211;DHT22;38179;52.756;6.906;2023-08-20T12:19:16;23.00;99.90
52211;DHT22;38179;52.756;6.906;2023-08-20T12:21:42;23.10;99.90
52211;DHT22;38179;52.756;6.906;2023-08-20T12:24:09;23.10;99.90
52211;DHT22;38179;52.756;6.906;2023-08-20T12:26:39;23.20;99.90
52211;DHT22;38179;52.756;6.906;2023-08-20T12:29:06;23.30;99.90
52211;DHT22;38179;52.756;6.906;2023-08-20T12:31:33;23.30;99.90
52211;DHT22;38179;52.756;6.906;2023-08-20T12:33:59;23.30;99.90
52211;DHT22;38179;52.756;6.906;2023-08-20T12:36:26;23.40;99.90
52211;DHT22;38179;52.756;6.906;2023-08-20T12:38:52;23.40;99.90
52211;DHT22;38179;52.756;6.906;2023-08-20T12:41:19;23.40;99.90
52211;DHT22;38179;52.756;6.906;2023-08-20T12:43:45;23.40;99.90
52211;DHT22;38179;52.756;6.906;2023-08-20T12:46:11;23.40;99.90
52211;DHT22;38179;52.756;6.906;2023-08-20T12:48:38;23.50;99.90
52211;DHT22;38179;52.756;6.906;2023-08-20T12:51:04;23.60;99.90
52211;DHT22;38179;52.756;6.906;2023-08-20T12:53:31;23.50;99.90
52211;DHT22;38179;52.756;6.906;2023-08-20T12:55:57;23.60;99.90
52211;DHT22;38179;52.756;6.906;2023-08-20T12:58:23;23.60;99.90
52211;DHT22;38179;52.756;6.906;2023-08-20T13:00:50;23.60;99.90
52211;DHT22;38179;52.756;6.906;2023-08-20T13:03:17;23.70;99.90
52211;DHT22;38179;52.756;6.906;2023-08-20T13:05:43;23.80;99.90
52211;DHT22;38179;52.756;6.906;2023-08-20T13:08:10;23.80;99.90
52211;DHT22;38179;52.756;6.906;2023-08-20T13:10:41;23.80;99.90
52211;DHT22;38179;52.756;6.906;2023-08-20T13:13:10;23.70;99.90
52211;DHT22;38179;52.756;6.906;2023-08-20T13:15:37;23.70;99.90
52211;DHT22;38179;52.756;6.906;2023-08-20T13:18:03;23.70;99.90
52211;DHT22;38179;52.756;6.906;2023-08-20T13:20:30;23.70;99.90
52211;DHT22;38179;52.756;6.906;2023-08-20T13:22:55;24.00;99.90
52211;DHT22;38179;52.756;6.906;2023-08-20T13:25:23;23.70;99.90
52211;DHT22;38179;52.756;6.906;2023-08-20T13:27:49;23.60;99.90
52211;DHT22;38179;52.756;6.906;2023-08-20T13:30:15;23.70;99.90
52211;DHT22;38179;52.756;6.906;2023-08-20T13:32:41;23.70;99.90
52211;DHT22;38179;52.756;6.906;2023-08-20T13:35:07;23.80;99.90
52211;DHT22;38179;52.756;6.906;2023-08-20T13:37:35;23.80;99.90
52211;DHT22;38179;52.756;6.906;2023-08-20T13:40:01;23.80;99.90
52211;DHT22;38179;52.756;6.906;2023-08-20T13:42:29;23.90;99.90
52211;DHT22;38179;52.756;6.906;2023-08-20T13:44:55;23.90;99.90
52211;DHT22;38179;52.756;6.906;2023-08-20T13:47:21;23.90;99.90
52211;DHT22;38179;52.756;6.906;2023-08-20T13:49:47;23.80;99.90
52211;DHT22;38179;52.756;6.906;2023-08-20T13:52:13;23.70;99.90
52211;DHT22;38179;52.756;6.906;2023-08-20T13:54:39;23.70;99.90
52211;DHT22;38179;52.756;6.906;2023-08-20T13:57:05;23.90;99.90
52211;DHT22;38179;52.756;6.906;2023-08-20T13:59:31;24.00;99.90
52211;DHT22;38179;52.756;6.906;2023-08-20T14:01:58;24.00;99.90
52211;DHT22;38179;52.756;6.906;2023-08-20T14:04:24;24.00;99.90
52211;DHT22;38179;52.756;6.906;2023-08-20T14:06:50;24.00;99.90
52211;DHT22;38179;52.756;6.906;2023-08-20T14:09:16;24.10;99.90
52211;DHT22;38179;52.756;6.906;2023-08-20T14:11:45;24.20;99.90
52211;DHT22;38179;52.756;6.906;2023-08-20T14:14:19;24.20;99.90
52211;DHT22;38179;52.756;6.906;2023-08-20T14:16:45;24.10;99.90
52211;DHT22;38179;52.756;6.906;2023-08-20T14:19:11;24.20;99.90
52211;DHT22;38179;52.756;6.906;2023-08-20T14:21:37;24.30;99.90
52211;DHT22;38179;52.756;6.906;2023-08-20T14:24:03;24.50;99.90
52211;DHT22;38179;52.756;6.906;2023-08-20T14:26:32;24.60;99.90
52211;DHT22;38179;52.756;6.906;2023-08-20T14:28:58;24.60;99.90
52211;DHT22;38179;52.756;6.906;2023-08-20T14:31:25;24.70;99.90
52211;DHT22;38179;52.756;6.906;2023-08-20T14:33:50;24.70;99.90
52211;DHT22;38179;52.756;6.906;2023-08-20T14:36:16;24.80;99.90
52211;DHT22;38179;52.756;6.906;2023-08-20T14:38:42;24.80;99.90
52211;DHT22;38179;52.756;6.906;2023-08-20T14:41:08;24.80;99.90
52211;DHT22;38179;52.756;6.906;2023-08-20T14:43:34;24.70;99.90
52211;DHT22;38179;52.756;6.906;2023-08-20T14:46:00;24.60;99.90
52211;DHT22;38179;52.756;6.906;2023-08-20T14:48:26;24.70;99.90
52211;DHT22;38179;52.756;6.906;2023-08-20T14:50:53;24.70;99.90
52211;DHT22;38179;52.756;6.906;2023-08-20T14:53:19;24.60;99.90
52211;DHT22;38179;52.756;6.906;2023-08-20T14:55:46;24.70;99.90
52211;DHT22;38179;52.756;6.906;2023-08-20T14:58:12;24.60;99.90
52211;DHT22;38179;52.756;6.906;2023-08-20T15:00:38;24.70;99.90
52211;DHT22;38179;52.756;6.906;2023-08-20T15:03:04;24.80;99.90
52211;DHT22;38179;52.756;6.906;2023-08-20T15:05:32;24.90;99.90
52211;DHT22;38179;52.756;6.906;2023-08-20T15:07:58;24.90;99.90
52211;DHT22;38179;52.756;6.906;2023-08-20T15:10:24;24.90;99.90
52211;DHT22;38179;52.756;6.906;2023-08-20T15:12:50;24.80;99.90
52211;DHT22;38179;52.756;6.906;2023-08-20T15:15:15;24.90;99.90
52211;DHT22;38179;52.756;6.906;2023-08-20T15:17:41;24.90;99.90
52211;DHT22;38179;52.756;6.906;2023-08-20T15:20:08;24.90;99.90
52211;DHT22;38179;52.756;6.906;2023-08-20T15:22:36;25.00;99.90
52211;DHT22;38179;52.756;6.906;2023-08-20T15:25:03;25.00;99.90
52211;DHT22;38179;52.756;6.906;2023-08-20T15:27:33;25.00;99.90
52211;DHT22;38179;52.756;6.906;2023-08-20T15:30:01;25.00;99.90
52211;DHT22;38179;52.756;6.906;2023-08-20T15:32:27;25.10;99.90
52211;DHT22;38179;52.756;6.906;2023-08-20T15:34:53;25.20;99.90
52211;DHT22;38179;52.756;6.906;2023-08-20T15:37:19;25.20;99.90
52211;DHT22;38179;52.756;6.906;2023-08-20T15:39:46;25.30;99.90
52211;DHT22;38179;52.756;6.906;2023-08-20T15:42:12;25.30;99.90
52211;DHT22;38179;52.756;6.906;2023-08-20T15:44:39;25.30;99.90
52211;DHT22;38179;52.756;6.906;2023-08-20T15:47:06;25.40;99.90